PBD588 UMKK-ULLI
Flight info
| Callsign | PBD588 |
|---|---|
| Flight time | 1h 24m |
| Altitude | 33000 |
| Route | N0450F330 PELUG DCT OTVOV DCT KEDUX DCT PIVAX DCT PIRUX DCT PISIM DCT PIDIN DCT ARANS DCT PISIS DCT AKARU |
| Aircraft | B738/M-VGDW/C |
Departure
| Time | 2026-05-07 06:29 |
|---|---|
| Airport | Khrabrovo Airport (UMKK) |
Arrival
| Time | 2026-05-07 07:53 |
|---|---|
| Airport | Pulkovo Airport (ULLI) |
| Time | Latitude | Longitude | Altitude | Speed | Heading |
|---|---|---|---|---|---|
| 2026-05-07 06:04 | 54.88406 | 20.58727 | 51 ft | 0 kts | 184° |
| 2026-05-07 06:21 | 54.88407 | 20.58727 | 51 ft | 1 kts | 184° |
| 2026-05-07 06:21 | 54.88420 | 20.58729 | 51 ft | 2 kts | 184° |
| 2026-05-07 06:22 | 54.88433 | 20.58730 | 51 ft | 2 kts | 184° |
| 2026-05-07 06:22 | 54.88461 | 20.58733 | 51 ft | 2 kts | 184° |
| 2026-05-07 06:22 | 54.88477 | 20.58737 | 51 ft | 2 kts | 193° |
| 2026-05-07 06:23 | 54.88492 | 20.58745 | 51 ft | 2 kts | 211° |
| 2026-05-07 06:23 | 54.88501 | 20.58763 | 51 ft | 2 kts | 240° |
| 2026-05-07 06:23 | 54.88505 | 20.58774 | 51 ft | 0 kts | 246° |
| 2026-05-07 06:25 | 54.88504 | 20.58773 | 51 ft | 1 kts | 246° |
| 2026-05-07 06:25 | 54.88493 | 20.58726 | 51 ft | 8 kts | 246° |
| 2026-05-07 06:25 | 54.88464 | 20.58616 | 51 ft | 13 kts | 245° |
| 2026-05-07 06:26 | 54.88420 | 20.58448 | 51 ft | 18 kts | 240° |
| 2026-05-07 06:26 | 54.88351 | 20.58262 | 51 ft | 18 kts | 237° |
| 2026-05-07 06:26 | 54.88280 | 20.58045 | 51 ft | 23 kts | 246° |
| 2026-05-07 06:26 | 54.88224 | 20.57822 | 51 ft | 17 kts | 258° |
| 2026-05-07 06:27 | 54.88297 | 20.57697 | 51 ft | 16 kts | 336° |
| 2026-05-07 06:27 | 54.88400 | 20.57618 | 51 ft | 16 kts | 336° |
| 2026-05-07 06:27 | 54.88503 | 20.57537 | 51 ft | 16 kts | 336° |
| 2026-05-07 06:27 | 54.88562 | 20.57565 | 51 ft | 8 kts | 64° |
| 2026-05-07 06:28 | 54.88595 | 20.57695 | 51 ft | 26 kts | 66° |
| 2026-05-07 06:28 | 54.88763 | 20.58334 | 51 ft | 89 kts | 65° |
| 2026-05-07 06:28 | 54.89096 | 20.59626 | 54 ft | 144 kts | 64° |
| 2026-05-07 06:28 | 54.89526 | 20.61325 | 484 ft | 159 kts | 65° |
| 2026-05-07 06:29 | 54.89976 | 20.63168 | 1066 ft | 172 kts | 64° |
| 2026-05-07 06:29 | 54.90446 | 20.64973 | 2041 ft | 155 kts | 64° |
| 2026-05-07 06:29 | 54.90896 | 20.66695 | 2741 ft | 160 kts | 64° |
| 2026-05-07 06:29 | 54.91364 | 20.68487 | 3379 ft | 167 kts | 64° |
| 2026-05-07 06:30 | 54.91878 | 20.70439 | 3765 ft | 190 kts | 63° |
| 2026-05-07 06:30 | 54.92787 | 20.72275 | 4039 ft | 216 kts | 33° |
| 2026-05-07 06:30 | 54.94308 | 20.72864 | 4337 ft | 239 kts | 354° |
| 2026-05-07 06:30 | 54.95863 | 20.71712 | 4916 ft | 252 kts | 325° |
| 2026-05-07 06:31 | 54.97187 | 20.69616 | 5615 ft | 261 kts | 314° |
| 2026-05-07 06:31 | 54.98387 | 20.67223 | 6498 ft | 263 kts | 310° |
| 2026-05-07 06:31 | 54.99534 | 20.64723 | 7386 ft | 265 kts | 308° |
| 2026-05-07 06:31 | 55.00700 | 20.62197 | 8180 ft | 270 kts | 308° |
| 2026-05-07 06:32 | 55.01905 | 20.59632 | 8901 ft | 278 kts | 308° |
| 2026-05-07 06:32 | 55.03156 | 20.56997 | 9617 ft | 284 kts | 307° |
| 2026-05-07 06:32 | 55.04425 | 20.54340 | 10429 ft | 287 kts | 307° |
| 2026-05-07 06:32 | 55.05724 | 20.51626 | 11015 ft | 299 kts | 306° |
| 2026-05-07 06:33 | 55.07101 | 20.48753 | 11348 ft | 319 kts | 306° |
| 2026-05-07 06:33 | 55.08552 | 20.45722 | 11662 ft | 337 kts | 306° |
| 2026-05-07 06:33 | 55.10080 | 20.42529 | 12207 ft | 347 kts | 306° |
| 2026-05-07 06:33 | 55.11633 | 20.39276 | 12937 ft | 350 kts | 306° |
| 2026-05-07 06:34 | 55.13215 | 20.36014 | 13662 ft | 355 kts | 309° |
| 2026-05-07 06:34 | 55.15170 | 20.33340 | 14360 ft | 367 kts | 327° |
| 2026-05-07 06:34 | 55.17628 | 20.31799 | 15023 ft | 380 kts | 344° |
| 2026-05-07 06:34 | 55.20288 | 20.31307 | 15674 ft | 388 kts | 353° |
| 2026-05-07 06:35 | 55.23004 | 20.31196 | 16317 ft | 393 kts | 355° |
| 2026-05-07 06:35 | 55.25760 | 20.31090 | 16929 ft | 397 kts | 354° |
| 2026-05-07 06:35 | 55.28533 | 20.30901 | 17535 ft | 401 kts | 353° |
| 2026-05-07 06:35 | 55.31325 | 20.30661 | 18121 ft | 404 kts | 353° |
| 2026-05-07 06:36 | 55.34147 | 20.30406 | 18705 ft | 408 kts | 352° |
| 2026-05-07 06:36 | 55.36998 | 20.30143 | 19260 ft | 412 kts | 352° |
| 2026-05-07 06:36 | 55.39869 | 20.29876 | 19825 ft | 416 kts | 352° |
| 2026-05-07 06:36 | 55.42773 | 20.29605 | 20365 ft | 419 kts | 352° |
| 2026-05-07 06:37 | 55.45670 | 20.29021 | 20883 ft | 418 kts | 344° |
| 2026-05-07 06:37 | 55.48470 | 20.27693 | 21381 ft | 416 kts | 335° |
| 2026-05-07 06:37 | 55.51139 | 20.25733 | 21921 ft | 414 kts | 329° |
| 2026-05-07 06:37 | 55.53676 | 20.23454 | 22403 ft | 415 kts | 326° |
| 2026-05-07 06:38 | 55.56209 | 20.20967 | 22868 ft | 418 kts | 324° |
| 2026-05-07 06:38 | 55.58752 | 20.18450 | 23341 ft | 421 kts | 324° |
| 2026-05-07 06:38 | 55.61326 | 20.15925 | 23804 ft | 424 kts | 325° |
| 2026-05-07 06:38 | 55.63923 | 20.13392 | 24252 ft | 427 kts | 325° |
| 2026-05-07 06:39 | 55.66532 | 20.10855 | 24695 ft | 430 kts | 325° |
| 2026-05-07 06:39 | 55.69164 | 20.08298 | 25122 ft | 432 kts | 324° |
| 2026-05-07 06:39 | 55.71812 | 20.05726 | 25540 ft | 435 kts | 324° |
| 2026-05-07 06:39 | 55.74473 | 20.03140 | 25946 ft | 437 kts | 324° |
| 2026-05-07 06:40 | 55.77148 | 20.00539 | 26339 ft | 440 kts | 324° |
| 2026-05-07 06:40 | 55.79853 | 19.97953 | 26706 ft | 443 kts | 324° |
| 2026-05-07 06:40 | 55.82575 | 19.95344 | 27063 ft | 445 kts | 324° |
| 2026-05-07 06:40 | 55.85301 | 19.92712 | 27431 ft | 447 kts | 324° |
| 2026-05-07 06:41 | 55.88043 | 19.90050 | 27782 ft | 449 kts | 324° |
| 2026-05-07 06:41 | 55.90789 | 19.87376 | 28123 ft | 452 kts | 324° |
| 2026-05-07 06:41 | 55.93554 | 19.84685 | 28458 ft | 454 kts | 324° |
| 2026-05-07 06:41 | 55.96342 | 19.82004 | 28808 ft | 455 kts | 324° |
| 2026-05-07 06:42 | 55.99116 | 19.79297 | 29201 ft | 455 kts | 323° |
| 2026-05-07 06:42 | 56.01884 | 19.76575 | 29662 ft | 453 kts | 323° |
| 2026-05-07 06:42 | 56.04636 | 19.73859 | 30103 ft | 451 kts | 323° |
| 2026-05-07 06:42 | 56.07382 | 19.71140 | 30489 ft | 451 kts | 323° |
| 2026-05-07 06:43 | 56.10123 | 19.68422 | 30915 ft | 449 kts | 323° |
| 2026-05-07 06:43 | 56.12854 | 19.65710 | 31318 ft | 448 kts | 323° |
| 2026-05-07 06:43 | 56.15580 | 19.63001 | 31673 ft | 448 kts | 323° |
| 2026-05-07 06:43 | 56.18375 | 19.60504 | 32072 ft | 455 kts | 332° |
| 2026-05-07 06:44 | 56.21482 | 19.59100 | 32463 ft | 466 kts | 346° |
| 2026-05-07 06:44 | 56.24715 | 19.58976 | 32784 ft | 477 kts | 359° |
| 2026-05-07 06:44 | 56.28033 | 19.59841 | 32930 ft | 486 kts | 6° |
| 2026-05-07 06:44 | 56.31380 | 19.61276 | 32939 ft | 490 kts | 9° |
| 2026-05-07 06:45 | 56.37912 | 19.64366 | 32939 ft | 486 kts | 9° |
| 2026-05-07 06:45 | 56.44474 | 19.67296 | 32941 ft | 485 kts | 9° |
| 2026-05-07 06:46 | 56.51027 | 19.70169 | 32943 ft | 484 kts | 8° |
| 2026-05-07 06:46 | 56.57574 | 19.73005 | 32956 ft | 482 kts | 8° |
| 2026-05-07 06:47 | 56.64098 | 19.75831 | 32967 ft | 482 kts | 8° |
| 2026-05-07 06:47 | 56.70615 | 19.78660 | 32970 ft | 481 kts | 8° |
| 2026-05-07 06:48 | 56.77130 | 19.81509 | 32972 ft | 481 kts | 9° |
| 2026-05-07 06:48 | 56.83615 | 19.84377 | 32974 ft | 480 kts | 9° |
| 2026-05-07 06:49 | 56.90103 | 19.87260 | 32975 ft | 478 kts | 9° |
| 2026-05-07 06:49 | 56.96564 | 19.90137 | 32978 ft | 477 kts | 9° |
| 2026-05-07 06:50 | 57.02986 | 19.93210 | 32981 ft | 479 kts | 13° |
| 2026-05-07 06:50 | 57.09328 | 19.96965 | 32982 ft | 478 kts | 14° |
| 2026-05-07 06:51 | 57.14583 | 20.00066 | 32985 ft | 477 kts | 14° |
| 2026-05-07 06:51 | 57.20895 | 20.03774 | 32987 ft | 476 kts | 13° |
| 2026-05-07 06:52 | 57.27198 | 20.07474 | 32989 ft | 475 kts | 13° |
| 2026-05-07 06:52 | 57.33497 | 20.11173 | 32991 ft | 473 kts | 13° |
| 2026-05-07 06:53 | 57.39777 | 20.14803 | 32997 ft | 472 kts | 13° |
| 2026-05-07 06:53 | 57.46039 | 20.18467 | 32999 ft | 472 kts | 14° |
| 2026-05-07 06:54 | 57.52293 | 20.22152 | 33001 ft | 471 kts | 14° |
| 2026-05-07 06:54 | 57.58533 | 20.25847 | 33010 ft | 471 kts | 14° |
| 2026-05-07 06:55 | 57.64778 | 20.29560 | 33013 ft | 471 kts | 14° |
| 2026-05-07 06:55 | 57.70970 | 20.33256 | 33016 ft | 470 kts | 14° |
| 2026-05-07 06:56 | 57.77195 | 20.36985 | 33019 ft | 470 kts | 14° |
| 2026-05-07 06:56 | 57.83421 | 20.40729 | 33019 ft | 469 kts | 14° |
| 2026-05-07 06:57 | 57.89633 | 20.44477 | 33020 ft | 469 kts | 14° |
| 2026-05-07 06:57 | 57.95849 | 20.48242 | 33021 ft | 469 kts | 14° |
| 2026-05-07 06:58 | 58.02066 | 20.52021 | 33021 ft | 469 kts | 14° |
| 2026-05-07 06:58 | 58.08283 | 20.55814 | 33022 ft | 470 kts | 14° |
| 2026-05-07 06:59 | 58.14509 | 20.59626 | 33023 ft | 471 kts | 14° |
| 2026-05-07 06:59 | 58.20740 | 20.63456 | 33024 ft | 471 kts | 14° |
| 2026-05-07 07:00 | 58.26981 | 20.67305 | 33027 ft | 471 kts | 14° |
| 2026-05-07 07:00 | 58.33224 | 20.71171 | 33035 ft | 472 kts | 14° |
| 2026-05-07 07:01 | 58.39464 | 20.75049 | 33036 ft | 472 kts | 14° |
| 2026-05-07 07:01 | 58.45709 | 20.78945 | 33037 ft | 473 kts | 14° |
| 2026-05-07 07:02 | 58.51969 | 20.82864 | 33039 ft | 473 kts | 14° |
| 2026-05-07 07:02 | 58.58225 | 20.86796 | 33041 ft | 474 kts | 14° |
| 2026-05-07 07:03 | 58.64492 | 20.90750 | 33043 ft | 474 kts | 14° |
| 2026-05-07 07:03 | 58.70719 | 20.94692 | 33045 ft | 474 kts | 14° |
| 2026-05-07 07:04 | 58.76996 | 20.98649 | 33046 ft | 475 kts | 13° |
| 2026-05-07 07:04 | 58.83274 | 21.02640 | 33048 ft | 476 kts | 14° |
| 2026-05-07 07:05 | 58.89565 | 21.06684 | 33046 ft | 476 kts | 14° |
| 2026-05-07 07:05 | 58.95852 | 21.10744 | 33043 ft | 477 kts | 14° |
| 2026-05-07 07:06 | 59.02054 | 21.15368 | 33031 ft | 484 kts | 26° |
| 2026-05-07 07:06 | 59.04757 | 21.19304 | 33036 ft | 490 kts | 41° |
| 2026-05-07 07:06 | 59.06970 | 21.24356 | 33049 ft | 493 kts | 53° |
| 2026-05-07 07:07 | 59.10344 | 21.35958 | 33049 ft | 493 kts | 65° |
| 2026-05-07 07:07 | 59.13217 | 21.48083 | 33050 ft | 494 kts | 65° |
| 2026-05-07 07:08 | 59.16193 | 21.60156 | 33057 ft | 494 kts | 64° |
| 2026-05-07 07:08 | 59.19209 | 21.72204 | 33057 ft | 495 kts | 64° |
| 2026-05-07 07:09 | 59.22304 | 21.84219 | 33057 ft | 496 kts | 63° |
| 2026-05-07 07:09 | 59.25412 | 21.96253 | 33055 ft | 497 kts | 64° |
| 2026-05-07 07:10 | 59.28478 | 22.08367 | 33055 ft | 497 kts | 64° |
| 2026-05-07 07:10 | 59.31520 | 22.20502 | 33055 ft | 497 kts | 64° |
| 2026-05-07 07:11 | 59.34548 | 22.32667 | 33055 ft | 497 kts | 64° |
| 2026-05-07 07:11 | 59.37561 | 22.44839 | 33055 ft | 497 kts | 65° |
| 2026-05-07 07:12 | 59.40566 | 22.57050 | 33054 ft | 497 kts | 65° |
| 2026-05-07 07:12 | 59.43602 | 22.69151 | 33054 ft | 497 kts | 65° |
| 2026-05-07 07:13 | 59.46574 | 22.81390 | 33055 ft | 495 kts | 65° |
| 2026-05-07 07:13 | 59.49511 | 22.93651 | 33050 ft | 496 kts | 65° |
| 2026-05-07 07:14 | 59.52444 | 23.05944 | 33048 ft | 496 kts | 65° |
| 2026-05-07 07:14 | 59.55282 | 23.18310 | 33046 ft | 494 kts | 70° |
| 2026-05-07 07:15 | 59.57446 | 23.31150 | 33044 ft | 493 kts | 75° |
| 2026-05-07 07:15 | 59.59394 | 23.44122 | 33042 ft | 494 kts | 75° |
| 2026-05-07 07:16 | 59.61397 | 23.57115 | 33040 ft | 494 kts | 74° |
| 2026-05-07 07:16 | 59.63407 | 23.70096 | 33039 ft | 494 kts | 74° |
| 2026-05-07 07:17 | 59.65422 | 23.83091 | 33038 ft | 494 kts | 73° |
| 2026-05-07 07:17 | 59.67608 | 23.96002 | 33035 ft | 495 kts | 73° |
| 2026-05-07 07:18 | 59.69611 | 24.09043 | 33036 ft | 495 kts | 75° |
| 2026-05-07 07:18 | 59.71573 | 24.22097 | 33037 ft | 494 kts | 75° |
| 2026-05-07 07:19 | 59.73513 | 24.35061 | 33043 ft | 494 kts | 75° |
| 2026-05-07 07:19 | 59.75456 | 24.48128 | 33045 ft | 494 kts | 76° |
| 2026-05-07 07:20 | 59.77123 | 24.61320 | 33045 ft | 492 kts | 78° |
| 2026-05-07 07:20 | 59.78736 | 24.74528 | 33047 ft | 492 kts | 78° |
| 2026-05-07 07:21 | 59.80356 | 24.87718 | 33050 ft | 491 kts | 78° |
| 2026-05-07 07:21 | 59.81968 | 25.00900 | 33051 ft | 491 kts | 78° |
| 2026-05-07 07:22 | 59.83586 | 25.14070 | 33050 ft | 490 kts | 77° |
| 2026-05-07 07:22 | 59.85288 | 25.27169 | 33051 ft | 489 kts | 77° |
| 2026-05-07 07:23 | 59.86911 | 25.40300 | 33050 ft | 485 kts | 78° |
| 2026-05-07 07:23 | 59.88549 | 25.53172 | 33049 ft | 475 kts | 78° |
| 2026-05-07 07:24 | 59.90058 | 25.65931 | 32924 ft | 473 kts | 78° |
| 2026-05-07 07:24 | 59.90797 | 25.72281 | 32628 ft | 468 kts | 78° |
| 2026-05-07 07:24 | 59.91526 | 25.78580 | 32221 ft | 464 kts | 78° |
| 2026-05-07 07:25 | 59.92964 | 25.91049 | 31378 ft | 459 kts | 78° |
| 2026-05-07 07:25 | 59.93679 | 25.97237 | 30962 ft | 457 kts | 78° |
| 2026-05-07 07:25 | 59.94388 | 26.03394 | 30551 ft | 454 kts | 78° |
| 2026-05-07 07:26 | 59.95091 | 26.09527 | 30144 ft | 452 kts | 78° |
| 2026-05-07 07:26 | 59.95783 | 26.15629 | 29746 ft | 450 kts | 78° |
| 2026-05-07 07:26 | 59.96458 | 26.21622 | 29348 ft | 448 kts | 78° |
| 2026-05-07 07:26 | 59.97136 | 26.27666 | 28944 ft | 445 kts | 78° |
| 2026-05-07 07:27 | 59.97817 | 26.33766 | 28534 ft | 443 kts | 79° |
| 2026-05-07 07:27 | 59.98533 | 26.39743 | 28128 ft | 441 kts | 77° |
| 2026-05-07 07:27 | 59.99256 | 26.45597 | 27729 ft | 439 kts | 78° |
| 2026-05-07 07:27 | 59.99939 | 26.51525 | 27326 ft | 437 kts | 79° |
| 2026-05-07 07:28 | 60.00599 | 26.57508 | 26915 ft | 435 kts | 79° |
| 2026-05-07 07:28 | 60.01242 | 26.63403 | 26508 ft | 433 kts | 80° |
| 2026-05-07 07:28 | 60.01877 | 26.69268 | 26103 ft | 431 kts | 80° |
| 2026-05-07 07:28 | 60.02507 | 26.75119 | 25695 ft | 430 kts | 80° |
| 2026-05-07 07:29 | 60.03134 | 26.80954 | 25288 ft | 428 kts | 80° |
| 2026-05-07 07:29 | 60.03750 | 26.86684 | 24887 ft | 426 kts | 80° |
| 2026-05-07 07:29 | 60.04372 | 26.92470 | 24481 ft | 425 kts | 80° |
| 2026-05-07 07:29 | 60.04991 | 26.98238 | 24076 ft | 423 kts | 81° |
| 2026-05-07 07:30 | 60.05559 | 27.03994 | 23669 ft | 421 kts | 83° |
| 2026-05-07 07:30 | 60.06052 | 27.09765 | 23263 ft | 419 kts | 84° |
| 2026-05-07 07:30 | 60.06530 | 27.15507 | 22860 ft | 417 kts | 83° |
| 2026-05-07 07:30 | 60.07007 | 27.21221 | 22457 ft | 416 kts | 83° |
| 2026-05-07 07:31 | 60.07484 | 27.26913 | 22055 ft | 414 kts | 83° |
| 2026-05-07 07:31 | 60.07959 | 27.32585 | 21654 ft | 412 kts | 83° |
| 2026-05-07 07:31 | 60.08431 | 27.38229 | 21255 ft | 410 kts | 83° |
| 2026-05-07 07:31 | 60.08900 | 27.43848 | 20856 ft | 408 kts | 83° |
| 2026-05-07 07:32 | 60.09364 | 27.49437 | 20460 ft | 406 kts | 83° |
| 2026-05-07 07:32 | 60.09825 | 27.54995 | 20065 ft | 403 kts | 83° |
| 2026-05-07 07:32 | 60.10281 | 27.60530 | 19673 ft | 401 kts | 83° |
| 2026-05-07 07:32 | 60.10734 | 27.66036 | 19281 ft | 399 kts | 83° |
| 2026-05-07 07:33 | 60.11229 | 27.71484 | 18891 ft | 397 kts | 82° |
| 2026-05-07 07:33 | 60.11725 | 27.76908 | 18503 ft | 394 kts | 82° |
| 2026-05-07 07:33 | 60.12198 | 27.82302 | 18117 ft | 391 kts | 83° |
| 2026-05-07 07:33 | 60.12655 | 27.87664 | 17732 ft | 389 kts | 83° |
| 2026-05-07 07:34 | 60.13095 | 27.92919 | 17355 ft | 386 kts | 83° |
| 2026-05-07 07:34 | 60.13532 | 27.98209 | 16979 ft | 383 kts | 83° |
| 2026-05-07 07:34 | 60.14000 | 28.03450 | 16605 ft | 380 kts | 82° |
| 2026-05-07 07:34 | 60.14458 | 28.08655 | 16230 ft | 377 kts | 82° |
| 2026-05-07 07:35 | 60.14884 | 28.13830 | 15858 ft | 374 kts | 83° |
| 2026-05-07 07:35 | 60.15291 | 28.18964 | 15489 ft | 371 kts | 83° |
| 2026-05-07 07:35 | 60.15688 | 28.24051 | 15122 ft | 368 kts | 83° |
| 2026-05-07 07:35 | 60.16078 | 28.29100 | 14756 ft | 365 kts | 83° |
| 2026-05-07 07:36 | 60.16462 | 28.34114 | 14392 ft | 361 kts | 83° |
| 2026-05-07 07:36 | 60.16841 | 28.39082 | 14030 ft | 358 kts | 82° |
| 2026-05-07 07:36 | 60.17215 | 28.44002 | 13671 ft | 355 kts | 82° |
| 2026-05-07 07:36 | 60.17585 | 28.48882 | 13314 ft | 352 kts | 82° |
| 2026-05-07 07:37 | 60.17953 | 28.53723 | 12959 ft | 349 kts | 82° |
| 2026-05-07 07:37 | 60.18314 | 28.58521 | 12605 ft | 345 kts | 83° |
| 2026-05-07 07:37 | 60.18478 | 28.63305 | 12255 ft | 342 kts | 90° |
| 2026-05-07 07:37 | 60.18363 | 28.68040 | 11906 ft | 338 kts | 96° |
| 2026-05-07 07:38 | 60.18069 | 28.72704 | 11559 ft | 335 kts | 99° |
| 2026-05-07 07:38 | 60.17689 | 28.77289 | 11214 ft | 331 kts | 101° |
| 2026-05-07 07:38 | 60.17431 | 28.80305 | 10986 ft | 329 kts | 100° |
| 2026-05-07 07:38 | 60.17050 | 28.84812 | 10647 ft | 326 kts | 100° |
| 2026-05-07 07:39 | 60.16683 | 28.89197 | 10308 ft | 309 kts | 100° |
| 2026-05-07 07:39 | 60.16342 | 28.93308 | 10143 ft | 289 kts | 100° |
| 2026-05-07 07:39 | 60.16018 | 28.97214 | 10081 ft | 279 kts | 100° |
| 2026-05-07 07:39 | 60.15705 | 29.00989 | 9959 ft | 271 kts | 100° |
| 2026-05-07 07:40 | 60.15397 | 29.04705 | 9691 ft | 269 kts | 100° |
| 2026-05-07 07:40 | 60.15091 | 29.08392 | 9418 ft | 267 kts | 99° |
| 2026-05-07 07:40 | 60.14787 | 29.12063 | 9143 ft | 266 kts | 99° |
| 2026-05-07 07:40 | 60.14485 | 29.15707 | 8871 ft | 264 kts | 100° |
| 2026-05-07 07:41 | 60.14185 | 29.19329 | 8598 ft | 262 kts | 99° |
| 2026-05-07 07:41 | 60.13887 | 29.22920 | 8327 ft | 260 kts | 99° |
| 2026-05-07 07:41 | 60.13602 | 29.26489 | 8055 ft | 258 kts | 99° |
| 2026-05-07 07:41 | 60.13315 | 29.30038 | 7779 ft | 257 kts | 99° |
| 2026-05-07 07:42 | 60.13023 | 29.33559 | 7500 ft | 255 kts | 99° |
| 2026-05-07 07:42 | 60.12729 | 29.37058 | 7216 ft | 254 kts | 99° |
| 2026-05-07 07:42 | 60.12435 | 29.40538 | 6930 ft | 253 kts | 99° |
| 2026-05-07 07:42 | 60.12141 | 29.44007 | 6640 ft | 251 kts | 99° |
| 2026-05-07 07:43 | 60.11846 | 29.47457 | 6347 ft | 250 kts | 100° |
| 2026-05-07 07:43 | 60.11253 | 29.50713 | 6117 ft | 250 kts | 119° |
| 2026-05-07 07:43 | 60.10207 | 29.53527 | 5895 ft | 255 kts | 130° |
| 2026-05-07 07:43 | 60.08981 | 29.56085 | 5700 ft | 254 kts | 134° |
| 2026-05-07 07:44 | 60.07691 | 29.58484 | 5513 ft | 252 kts | 136° |
| 2026-05-07 07:44 | 60.06391 | 29.60837 | 5330 ft | 252 kts | 136° |
| 2026-05-07 07:44 | 60.05094 | 29.63205 | 5149 ft | 252 kts | 136° |
| 2026-05-07 07:44 | 60.03806 | 29.65568 | 4971 ft | 251 kts | 136° |
| 2026-05-07 07:45 | 60.02523 | 29.67930 | 4793 ft | 251 kts | 135° |
| 2026-05-07 07:45 | 60.01242 | 29.70292 | 4616 ft | 251 kts | 136° |
| 2026-05-07 07:45 | 59.99962 | 29.72653 | 4439 ft | 250 kts | 136° |
| 2026-05-07 07:45 | 59.98688 | 29.75004 | 4262 ft | 249 kts | 135° |
| 2026-05-07 07:46 | 59.97423 | 29.77337 | 4106 ft | 245 kts | 135° |
| 2026-05-07 07:46 | 59.96187 | 29.79617 | 3930 ft | 239 kts | 135° |
| 2026-05-07 07:46 | 59.95016 | 29.81779 | 3724 ft | 224 kts | 135° |
| 2026-05-07 07:46 | 59.93918 | 29.83802 | 3570 ft | 205 kts | 136° |
| 2026-05-07 07:47 | 59.92838 | 29.85506 | 3422 ft | 191 kts | 142° |
| 2026-05-07 07:47 | 59.91766 | 29.86941 | 3273 ft | 182 kts | 144° |
| 2026-05-07 07:47 | 59.90727 | 29.88283 | 3137 ft | 175 kts | 144° |
| 2026-05-07 07:47 | 59.89712 | 29.89606 | 3022 ft | 174 kts | 144° |
| 2026-05-07 07:48 | 59.88700 | 29.90935 | 2908 ft | 174 kts | 144° |
| 2026-05-07 07:48 | 59.87691 | 29.92263 | 2789 ft | 174 kts | 144° |
| 2026-05-07 07:48 | 59.86679 | 29.93595 | 2668 ft | 175 kts | 144° |
| 2026-05-07 07:48 | 59.85693 | 29.95007 | 2537 ft | 174 kts | 131° |
| 2026-05-07 07:49 | 59.85114 | 29.97054 | 2506 ft | 167 kts | 111° |
| 2026-05-07 07:49 | 59.84737 | 29.99236 | 2509 ft | 167 kts | 106° |
| 2026-05-07 07:49 | 59.84409 | 30.01466 | 2402 ft | 165 kts | 105° |
| 2026-05-07 07:49 | 59.84095 | 30.03589 | 2206 ft | 155 kts | 105° |
| 2026-05-07 07:50 | 59.83802 | 30.05561 | 2018 ft | 144 kts | 105° |
| 2026-05-07 07:50 | 59.83524 | 30.07430 | 1808 ft | 138 kts | 105° |
| 2026-05-07 07:50 | 59.83253 | 30.09256 | 1630 ft | 138 kts | 105° |
| 2026-05-07 07:50 | 59.82980 | 30.11090 | 1454 ft | 139 kts | 105° |
| 2026-05-07 07:51 | 59.82707 | 30.12920 | 1273 ft | 137 kts | 105° |
| 2026-05-07 07:51 | 59.82436 | 30.14738 | 1095 ft | 138 kts | 105° |
| 2026-05-07 07:51 | 59.82164 | 30.16568 | 914 ft | 138 kts | 106° |
| 2026-05-07 07:51 | 59.81894 | 30.18376 | 728 ft | 135 kts | 106° |
| 2026-05-07 07:52 | 59.81627 | 30.20165 | 550 ft | 135 kts | 106° |
| 2026-05-07 07:52 | 59.81363 | 30.21936 | 376 ft | 133 kts | 106° |
| 2026-05-07 07:52 | 59.81099 | 30.23697 | 202 ft | 133 kts | 106° |
| 2026-05-07 07:52 | 59.80834 | 30.25428 | 93 ft | 125 kts | 102° |
| 2026-05-07 07:53 | 59.80634 | 30.26862 | 88 ft | 77 kts | 109° |
| 2026-05-07 07:53 | 59.80533 | 30.27524 | 87 ft | 41 kts | 106° |
| 2026-05-07 07:53 | 59.80479 | 30.27855 | 87 ft | 7 kts | 145° |
| 2026-05-07 07:53 | 59.80441 | 30.27797 | 87 ft | 11 kts | 248° |
| 2026-05-07 07:54 | 59.80407 | 30.27599 | 87 ft | 19 kts | 251° |
| 2026-05-07 07:54 | 59.80363 | 30.27338 | 87 ft | 20 kts | 251° |
| 2026-05-07 07:54 | 59.80363 | 30.27091 | 87 ft | 19 kts | 286° |
| 2026-05-07 07:54 | 59.80374 | 30.26875 | 87 ft | 14 kts | 213° |
| 2026-05-07 07:55 | 59.80271 | 30.26803 | 87 ft | 16 kts | 195° |
| 2026-05-07 07:55 | 59.80217 | 30.26854 | 87 ft | 9 kts | 107° |
| 2026-05-07 07:55 | 59.80210 | 30.26896 | 87 ft | 0 kts | 107° |
| 2026-05-07 07:55 | 59.80210 | 30.26897 | 87 ft | 0 kts | 107° |